ANA248 NZNV-NZAA
Flight info
| Callsign | ANA248 |
|---|---|
| Flight time | N/A |
| Altitude | 25000 |
| Route | ANOPA Q787 QN Y569 LOVTA Y655 POKOM Q277 DAVEE |
| Aircraft | B77W/H-SDE1E2E3FGHIJ2J3J4J5M1RWXY/LB1D1 |
Departure
| Time | N/A |
|---|---|
| Airport | Invercargill Airport (NZNV) |
Arrival
| Time | 2026-05-05 09:20 |
|---|---|
| Airport | Auckland International Airport (NZAA) |
| Time | Latitude | Longitude | Altitude | Speed | Heading |
|---|---|---|---|---|---|
| 2026-05-05 07:54 | -45.15519 | 168.73124 | 25318 ft | 459 kts | 11° |
| 2026-05-05 07:54 | -45.12354 | 168.74084 | 25318 ft | 459 kts | 11° |
| 2026-05-05 07:55 | -45.09269 | 168.75018 | 25319 ft | 459 kts | 11° |
| 2026-05-05 07:55 | -45.06128 | 168.75968 | 25324 ft | 459 kts | 11° |
| 2026-05-05 07:55 | -45.03031 | 168.76903 | 25321 ft | 460 kts | 11° |
| 2026-05-05 07:55 | -44.99927 | 168.78058 | 25312 ft | 461 kts | 16° |
| 2026-05-05 07:56 | -44.96903 | 168.79637 | 25316 ft | 462 kts | 21° |
| 2026-05-05 07:56 | -44.94018 | 168.81565 | 25314 ft | 463 kts | 26° |
| 2026-05-05 07:56 | -44.91187 | 168.83775 | 25326 ft | 464 kts | 27° |
| 2026-05-05 07:56 | -44.88390 | 168.85971 | 25331 ft | 464 kts | 27° |
| 2026-05-05 07:57 | -44.85567 | 168.88183 | 25334 ft | 464 kts | 27° |
| 2026-05-05 07:57 | -44.82726 | 168.90398 | 25336 ft | 465 kts | 27° |
| 2026-05-05 07:57 | -44.79925 | 168.92572 | 25331 ft | 464 kts | 27° |
| 2026-05-05 07:57 | -44.77085 | 168.94765 | 25340 ft | 464 kts | 27° |
| 2026-05-05 07:58 | -44.74241 | 168.96955 | 25338 ft | 464 kts | 27° |
| 2026-05-05 07:58 | -44.71441 | 168.99106 | 25345 ft | 464 kts | 27° |
| 2026-05-05 07:58 | -44.68602 | 169.01285 | 25356 ft | 464 kts | 27° |
| 2026-05-05 07:58 | -44.65761 | 169.03463 | 25359 ft | 464 kts | 27° |
| 2026-05-05 07:59 | -44.62912 | 169.05644 | 25355 ft | 464 kts | 27° |
| 2026-05-05 07:59 | -44.60112 | 169.07786 | 25355 ft | 464 kts | 27° |
| 2026-05-05 07:59 | -44.57249 | 169.09973 | 25368 ft | 465 kts | 27° |
| 2026-05-05 07:59 | -44.54433 | 169.12123 | 25371 ft | 464 kts | 27° |
| 2026-05-05 08:00 | -44.51585 | 169.14294 | 25380 ft | 464 kts | 27° |
| 2026-05-05 08:00 | -44.48776 | 169.16433 | 25379 ft | 464 kts | 27° |
| 2026-05-05 08:00 | -44.45930 | 169.18598 | 25384 ft | 465 kts | 27° |
| 2026-05-05 08:00 | -44.43079 | 169.20764 | 25387 ft | 464 kts | 27° |
| 2026-05-05 08:01 | -44.40232 | 169.22925 | 25386 ft | 463 kts | 27° |
| 2026-05-05 08:01 | -44.37430 | 169.25050 | 25395 ft | 464 kts | 27° |
| 2026-05-05 08:01 | -44.34577 | 169.27211 | 25396 ft | 462 kts | 27° |
| 2026-05-05 08:01 | -44.31782 | 169.29327 | 25412 ft | 459 kts | 27° |
| 2026-05-05 08:02 | -44.28966 | 169.31453 | 25423 ft | 460 kts | 26° |
| 2026-05-05 08:02 | -44.26142 | 169.33583 | 25424 ft | 462 kts | 27° |
| 2026-05-05 08:02 | -44.23292 | 169.35732 | 25424 ft | 463 kts | 27° |
| 2026-05-05 08:02 | -44.20473 | 169.37856 | 25425 ft | 464 kts | 27° |
| 2026-05-05 08:03 | -44.17628 | 169.39997 | 25434 ft | 464 kts | 27° |
| 2026-05-05 08:03 | -44.14910 | 169.42040 | 25434 ft | 465 kts | 27° |
| 2026-05-05 08:03 | -44.12042 | 169.44193 | 25438 ft | 466 kts | 27° |
| 2026-05-05 08:03 | -44.09207 | 169.46318 | 25449 ft | 466 kts | 27° |
| 2026-05-05 08:04 | -44.06341 | 169.48464 | 25457 ft | 464 kts | 27° |
| 2026-05-05 08:04 | -44.03530 | 169.50568 | 25458 ft | 462 kts | 27° |
| 2026-05-05 08:04 | -44.00688 | 169.52694 | 25443 ft | 462 kts | 27° |
| 2026-05-05 08:04 | -43.97842 | 169.54821 | 25470 ft | 464 kts | 27° |
| 2026-05-05 08:05 | -43.95008 | 169.56934 | 25462 ft | 467 kts | 27° |
| 2026-05-05 08:05 | -43.92115 | 169.59089 | 25456 ft | 469 kts | 27° |
| 2026-05-05 08:05 | -43.89263 | 169.61211 | 25456 ft | 468 kts | 27° |
| 2026-05-05 08:05 | -43.86384 | 169.63351 | 25454 ft | 466 kts | 27° |
| 2026-05-05 08:06 | -43.83549 | 169.65456 | 25456 ft | 464 kts | 27° |
| 2026-05-05 08:06 | -43.80690 | 169.67576 | 25466 ft | 464 kts | 27° |
| 2026-05-05 08:06 | -43.77862 | 169.69671 | 25447 ft | 464 kts | 27° |
| 2026-05-05 08:06 | -43.75025 | 169.71771 | 25444 ft | 466 kts | 27° |
| 2026-05-05 08:07 | -43.72149 | 169.73897 | 25454 ft | 469 kts | 27° |
| 2026-05-05 08:07 | -43.69257 | 169.76033 | 25458 ft | 469 kts | 27° |
| 2026-05-05 08:07 | -43.66403 | 169.78139 | 25445 ft | 469 kts | 27° |
| 2026-05-05 08:07 | -43.63515 | 169.80267 | 25447 ft | 468 kts | 27° |
| 2026-05-05 08:08 | -43.60630 | 169.82392 | 25442 ft | 467 kts | 27° |
| 2026-05-05 08:08 | -43.57788 | 169.84483 | 25457 ft | 467 kts | 27° |
| 2026-05-05 08:08 | -43.54905 | 169.86602 | 25459 ft | 468 kts | 27° |
| 2026-05-05 08:08 | -43.52011 | 169.88725 | 25457 ft | 470 kts | 27° |
| 2026-05-05 08:09 | -43.49186 | 169.90938 | 25454 ft | 470 kts | 31° |
| 2026-05-05 08:09 | -43.46490 | 169.93515 | 25449 ft | 471 kts | 37° |
| 2026-05-05 08:09 | -43.44006 | 169.96396 | 25463 ft | 471 kts | 40° |
| 2026-05-05 08:09 | -43.41522 | 169.99343 | 25459 ft | 471 kts | 40° |
| 2026-05-05 08:10 | -43.39026 | 170.02296 | 25456 ft | 471 kts | 40° |
| 2026-05-05 08:10 | -43.36555 | 170.05205 | 25443 ft | 471 kts | 40° |
| 2026-05-05 08:10 | -43.34043 | 170.08146 | 25458 ft | 471 kts | 39° |
| 2026-05-05 08:10 | -43.31570 | 170.11030 | 25461 ft | 471 kts | 39° |
| 2026-05-05 08:11 | -43.29052 | 170.13956 | 25455 ft | 471 kts | 39° |
| 2026-05-05 08:11 | -43.26576 | 170.16827 | 25455 ft | 471 kts | 39° |
| 2026-05-05 08:11 | -43.24060 | 170.19740 | 25462 ft | 471 kts | 39° |
| 2026-05-05 08:11 | -43.21573 | 170.22617 | 25441 ft | 471 kts | 39° |
| 2026-05-05 08:12 | -43.19056 | 170.25525 | 25463 ft | 471 kts | 39° |
| 2026-05-05 08:12 | -43.16575 | 170.28389 | 25469 ft | 471 kts | 39° |
| 2026-05-05 08:12 | -43.14058 | 170.31293 | 25464 ft | 471 kts | 39° |
| 2026-05-05 08:12 | -43.11543 | 170.34190 | 25467 ft | 470 kts | 39° |
| 2026-05-05 08:13 | -43.09057 | 170.37051 | 25468 ft | 470 kts | 39° |
| 2026-05-05 08:13 | -43.06568 | 170.39911 | 25470 ft | 470 kts | 39° |
| 2026-05-05 08:13 | -43.04049 | 170.42804 | 25470 ft | 471 kts | 39° |
| 2026-05-05 08:13 | -43.01560 | 170.45659 | 25472 ft | 470 kts | 39° |
| 2026-05-05 08:14 | -42.99035 | 170.48552 | 25469 ft | 470 kts | 39° |
| 2026-05-05 08:14 | -42.96547 | 170.51399 | 25469 ft | 470 kts | 39° |
| 2026-05-05 08:14 | -42.94021 | 170.54287 | 25467 ft | 471 kts | 39° |
| 2026-05-05 08:14 | -42.91531 | 170.57131 | 25470 ft | 471 kts | 39° |
| 2026-05-05 08:15 | -42.89009 | 170.60008 | 25471 ft | 471 kts | 39° |
| 2026-05-05 08:15 | -42.86485 | 170.62884 | 25475 ft | 470 kts | 39° |
| 2026-05-05 08:15 | -42.84001 | 170.65711 | 25473 ft | 470 kts | 39° |
| 2026-05-05 08:15 | -42.81484 | 170.68573 | 25475 ft | 471 kts | 39° |
| 2026-05-05 08:16 | -42.78951 | 170.71450 | 25476 ft | 471 kts | 39° |
| 2026-05-05 08:16 | -42.76456 | 170.74281 | 25474 ft | 471 kts | 39° |
| 2026-05-05 08:16 | -42.73931 | 170.77142 | 25476 ft | 471 kts | 39° |
| 2026-05-05 08:16 | -42.71435 | 170.79968 | 25475 ft | 470 kts | 39° |
| 2026-05-05 08:17 | -42.68912 | 170.82821 | 25473 ft | 471 kts | 39° |
| 2026-05-05 08:17 | -42.66383 | 170.85678 | 25474 ft | 470 kts | 39° |
| 2026-05-05 08:17 | -42.63888 | 170.88492 | 25479 ft | 470 kts | 39° |
| 2026-05-05 08:17 | -42.61357 | 170.91345 | 25475 ft | 471 kts | 39° |
| 2026-05-05 08:18 | -42.58862 | 170.94154 | 25475 ft | 471 kts | 39° |
| 2026-05-05 08:18 | -42.56326 | 170.97006 | 25478 ft | 471 kts | 39° |
| 2026-05-05 08:18 | -42.53823 | 170.99818 | 25477 ft | 471 kts | 39° |
| 2026-05-05 08:18 | -42.51285 | 171.02666 | 25481 ft | 471 kts | 39° |
| 2026-05-05 08:19 | -42.48750 | 171.05509 | 25476 ft | 471 kts | 39° |
| 2026-05-05 08:19 | -42.46254 | 171.08303 | 25478 ft | 471 kts | 39° |
| 2026-05-05 08:19 | -42.43716 | 171.11142 | 25477 ft | 471 kts | 39° |
| 2026-05-05 08:19 | -42.41183 | 171.13973 | 25475 ft | 471 kts | 39° |
| 2026-05-05 08:20 | -42.38674 | 171.16773 | 25478 ft | 471 kts | 39° |
| 2026-05-05 08:20 | -42.36143 | 171.19595 | 25476 ft | 471 kts | 39° |
| 2026-05-05 08:20 | -42.33632 | 171.22392 | 25475 ft | 471 kts | 39° |
| 2026-05-05 08:20 | -42.31098 | 171.25211 | 25478 ft | 471 kts | 39° |
| 2026-05-05 08:21 | -42.28548 | 171.28045 | 25482 ft | 471 kts | 39° |
| 2026-05-05 08:21 | -42.26044 | 171.30825 | 25482 ft | 471 kts | 39° |
| 2026-05-05 08:21 | -42.23496 | 171.33652 | 25482 ft | 471 kts | 39° |
| 2026-05-05 08:21 | -42.20954 | 171.36467 | 25478 ft | 471 kts | 39° |
| 2026-05-05 08:22 | -42.18442 | 171.39248 | 25485 ft | 471 kts | 39° |
| 2026-05-05 08:22 | -42.15900 | 171.42058 | 25478 ft | 471 kts | 39° |
| 2026-05-05 08:22 | -42.13386 | 171.44835 | 25485 ft | 471 kts | 39° |
| 2026-05-05 08:22 | -42.10841 | 171.47643 | 25481 ft | 471 kts | 39° |
| 2026-05-05 08:23 | -42.08318 | 171.50423 | 25484 ft | 471 kts | 39° |
| 2026-05-05 08:23 | -42.05775 | 171.53223 | 25481 ft | 471 kts | 39° |
| 2026-05-05 08:23 | -42.03228 | 171.56026 | 25483 ft | 471 kts | 38° |
| 2026-05-05 08:23 | -42.00709 | 171.58793 | 25485 ft | 472 kts | 38° |
| 2026-05-05 08:24 | -41.98163 | 171.61619 | 25484 ft | 473 kts | 40° |
| 2026-05-05 08:24 | -41.95729 | 171.64524 | 25477 ft | 472 kts | 41° |
| 2026-05-05 08:24 | -41.93289 | 171.67500 | 25474 ft | 470 kts | 41° |
| 2026-05-05 08:24 | -41.90901 | 171.70432 | 25481 ft | 469 kts | 42° |
| 2026-05-05 08:25 | -41.88482 | 171.73404 | 25487 ft | 470 kts | 42° |
| 2026-05-05 08:25 | -41.86056 | 171.76374 | 25490 ft | 471 kts | 42° |
| 2026-05-05 08:25 | -41.83621 | 171.79344 | 25487 ft | 471 kts | 41° |
| 2026-05-05 08:25 | -41.81214 | 171.82271 | 25485 ft | 471 kts | 41° |
| 2026-05-05 08:26 | -41.78777 | 171.85227 | 25489 ft | 471 kts | 41° |
| 2026-05-05 08:26 | -41.76364 | 171.88147 | 25491 ft | 471 kts | 41° |
| 2026-05-05 08:26 | -41.73923 | 171.91098 | 25489 ft | 471 kts | 41° |
| 2026-05-05 08:26 | -41.71478 | 171.94049 | 25491 ft | 470 kts | 41° |
| 2026-05-05 08:27 | -41.69076 | 171.96947 | 25491 ft | 470 kts | 41° |
| 2026-05-05 08:27 | -41.66631 | 171.99894 | 25491 ft | 469 kts | 41° |
| 2026-05-05 08:27 | -41.64226 | 172.02789 | 25492 ft | 469 kts | 41° |
| 2026-05-05 08:27 | -41.61792 | 172.05717 | 25486 ft | 468 kts | 41° |
| 2026-05-05 08:28 | -41.59393 | 172.08599 | 25488 ft | 466 kts | 41° |
| 2026-05-05 08:28 | -41.56975 | 172.11502 | 25486 ft | 467 kts | 41° |
| 2026-05-05 08:28 | -41.54567 | 172.14390 | 25495 ft | 469 kts | 41° |
| 2026-05-05 08:28 | -41.52117 | 172.17324 | 25494 ft | 471 kts | 41° |
| 2026-05-05 08:29 | -41.49698 | 172.20218 | 25489 ft | 469 kts | 41° |
| 2026-05-05 08:29 | -41.47262 | 172.23130 | 25488 ft | 467 kts | 41° |
| 2026-05-05 08:29 | -41.44842 | 172.26018 | 25490 ft | 466 kts | 41° |
| 2026-05-05 08:30 | -41.40002 | 172.31788 | 25495 ft | 469 kts | 41° |
| 2026-05-05 08:30 | -41.37551 | 172.34706 | 25493 ft | 469 kts | 41° |
| 2026-05-05 08:30 | -41.35148 | 172.37562 | 25495 ft | 468 kts | 41° |
| 2026-05-05 08:30 | -41.32700 | 172.40470 | 25494 ft | 468 kts | 41° |
| 2026-05-05 08:31 | -41.30298 | 172.43321 | 25487 ft | 467 kts | 41° |
| 2026-05-05 08:31 | -41.27868 | 172.46201 | 25484 ft | 466 kts | 41° |
| 2026-05-05 08:31 | -41.25433 | 172.49083 | 25489 ft | 466 kts | 41° |
| 2026-05-05 08:31 | -41.23035 | 172.51918 | 25491 ft | 468 kts | 41° |
| 2026-05-05 08:32 | -41.20588 | 172.54809 | 25492 ft | 470 kts | 41° |
| 2026-05-05 08:32 | -41.18158 | 172.57678 | 25493 ft | 471 kts | 41° |
| 2026-05-05 08:32 | -41.15691 | 172.60588 | 25487 ft | 471 kts | 41° |
| 2026-05-05 08:32 | -41.13229 | 172.63490 | 25486 ft | 470 kts | 41° |
| 2026-05-05 08:33 | -41.10806 | 172.66341 | 25474 ft | 469 kts | 41° |
| 2026-05-05 08:33 | -41.08354 | 172.69223 | 25471 ft | 467 kts | 41° |
| 2026-05-05 08:33 | -41.05949 | 172.72047 | 25471 ft | 466 kts | 41° |
| 2026-05-05 08:33 | -41.03515 | 172.74901 | 25476 ft | 466 kts | 41° |
| 2026-05-05 08:34 | -41.01101 | 172.77730 | 25477 ft | 466 kts | 41° |
| 2026-05-05 08:34 | -40.98658 | 172.80590 | 25471 ft | 465 kts | 41° |
| 2026-05-05 08:34 | -40.96251 | 172.83406 | 25469 ft | 466 kts | 41° |
| 2026-05-05 08:34 | -40.93809 | 172.86259 | 25468 ft | 467 kts | 41° |
| 2026-05-05 08:35 | -40.91386 | 172.89087 | 25466 ft | 467 kts | 41° |
| 2026-05-05 08:35 | -40.88934 | 172.91946 | 25464 ft | 466 kts | 41° |
| 2026-05-05 08:35 | -40.86526 | 172.94750 | 25463 ft | 466 kts | 41° |
| 2026-05-05 08:35 | -40.84077 | 172.97598 | 25458 ft | 467 kts | 41° |
| 2026-05-05 08:36 | -40.81629 | 173.00444 | 25461 ft | 466 kts | 40° |
| 2026-05-05 08:36 | -40.79206 | 173.03257 | 25463 ft | 468 kts | 40° |
| 2026-05-05 08:36 | -40.76774 | 173.06078 | 25463 ft | 470 kts | 40° |
| 2026-05-05 08:36 | -40.74307 | 173.08938 | 25462 ft | 470 kts | 40° |
| 2026-05-05 08:37 | -40.71848 | 173.11786 | 25458 ft | 468 kts | 40° |
| 2026-05-05 08:37 | -40.69426 | 173.14587 | 25454 ft | 466 kts | 40° |
| 2026-05-05 08:37 | -40.66991 | 173.17400 | 25452 ft | 463 kts | 40° |
| 2026-05-05 08:37 | -40.64582 | 173.20180 | 25461 ft | 464 kts | 40° |
| 2026-05-05 08:38 | -40.62135 | 173.23000 | 25469 ft | 466 kts | 40° |
| 2026-05-05 08:38 | -40.59686 | 173.25822 | 25462 ft | 467 kts | 40° |
| 2026-05-05 08:38 | -40.57253 | 173.28622 | 25461 ft | 468 kts | 40° |
| 2026-05-05 08:38 | -40.54793 | 173.31451 | 25461 ft | 468 kts | 40° |
| 2026-05-05 08:39 | -40.52366 | 173.34239 | 25456 ft | 466 kts | 40° |
| 2026-05-05 08:39 | -40.49911 | 173.37054 | 25459 ft | 466 kts | 40° |
| 2026-05-05 08:39 | -40.47490 | 173.39830 | 25462 ft | 466 kts | 40° |
| 2026-05-05 08:39 | -40.45033 | 173.42644 | 25463 ft | 466 kts | 40° |
| 2026-05-05 08:40 | -40.42608 | 173.45416 | 25462 ft | 467 kts | 40° |
| 2026-05-05 08:40 | -40.40139 | 173.48233 | 25468 ft | 468 kts | 40° |
| 2026-05-05 08:40 | -40.37694 | 173.51015 | 25471 ft | 469 kts | 40° |
| 2026-05-05 08:40 | -40.35219 | 173.53828 | 25467 ft | 469 kts | 40° |
| 2026-05-05 08:41 | -40.32738 | 173.56645 | 25463 ft | 469 kts | 40° |
| 2026-05-05 08:41 | -40.30287 | 173.59427 | 25466 ft | 469 kts | 40° |
| 2026-05-05 08:41 | -40.27809 | 173.62238 | 25467 ft | 470 kts | 40° |
| 2026-05-05 08:41 | -40.26166 | 173.64099 | 25466 ft | 469 kts | 40° |
| 2026-05-05 08:42 | -40.23681 | 173.66914 | 25468 ft | 469 kts | 40° |
| 2026-05-05 08:42 | -40.21233 | 173.69682 | 25467 ft | 469 kts | 40° |
| 2026-05-05 08:42 | -40.18752 | 173.72487 | 25466 ft | 469 kts | 40° |
| 2026-05-05 08:42 | -40.16293 | 173.75263 | 25467 ft | 469 kts | 40° |
| 2026-05-05 08:43 | -40.13813 | 173.78061 | 25470 ft | 469 kts | 40° |
| 2026-05-05 08:43 | -40.11357 | 173.80828 | 25470 ft | 469 kts | 40° |
| 2026-05-05 08:43 | -40.08877 | 173.83621 | 25471 ft | 469 kts | 40° |
| 2026-05-05 08:43 | -40.06429 | 173.86373 | 25470 ft | 469 kts | 40° |
| 2026-05-05 08:44 | -40.03945 | 173.89164 | 25469 ft | 468 kts | 40° |
| 2026-05-05 08:44 | -40.01498 | 173.91911 | 25469 ft | 468 kts | 40° |
| 2026-05-05 08:44 | -39.99025 | 173.94683 | 25471 ft | 469 kts | 40° |
| 2026-05-05 08:44 | -39.96534 | 173.97473 | 25468 ft | 469 kts | 40° |
| 2026-05-05 08:45 | -39.94082 | 174.00217 | 25467 ft | 468 kts | 40° |
| 2026-05-05 08:45 | -39.91590 | 174.03003 | 25474 ft | 468 kts | 40° |
| 2026-05-05 08:45 | -39.89136 | 174.05744 | 25474 ft | 468 kts | 40° |
| 2026-05-05 08:45 | -39.86651 | 174.08517 | 25477 ft | 468 kts | 40° |
| 2026-05-05 08:46 | -39.84200 | 174.11249 | 25475 ft | 468 kts | 40° |
| 2026-05-05 08:46 | -39.81721 | 174.14010 | 25478 ft | 468 kts | 40° |
| 2026-05-05 08:46 | -39.79246 | 174.16763 | 25479 ft | 468 kts | 40° |
| 2026-05-05 08:46 | -39.76789 | 174.19494 | 25473 ft | 468 kts | 40° |
| 2026-05-05 08:47 | -39.74302 | 174.22254 | 25475 ft | 467 kts | 40° |
| 2026-05-05 08:47 | -39.71819 | 174.25009 | 25475 ft | 467 kts | 40° |
| 2026-05-05 08:47 | -39.69371 | 174.27722 | 25478 ft | 467 kts | 40° |
| 2026-05-05 08:47 | -39.66881 | 174.30478 | 25480 ft | 467 kts | 40° |
| 2026-05-05 08:48 | -39.64426 | 174.33194 | 25480 ft | 468 kts | 40° |
| 2026-05-05 08:48 | -39.61934 | 174.35948 | 25481 ft | 467 kts | 39° |
| 2026-05-05 08:48 | -39.59455 | 174.38685 | 25485 ft | 467 kts | 39° |
| 2026-05-05 08:48 | -39.56999 | 174.41395 | 25485 ft | 467 kts | 39° |
| 2026-05-05 08:49 | -39.54518 | 174.44129 | 25484 ft | 467 kts | 39° |
| 2026-05-05 08:49 | -39.52050 | 174.46774 | 25483 ft | 465 kts | 36° |
| 2026-05-05 08:49 | -39.49276 | 174.48966 | 25481 ft | 465 kts | 25° |
| 2026-05-05 08:49 | -39.46273 | 174.50539 | 25498 ft | 465 kts | 17° |
| 2026-05-05 08:50 | -39.43149 | 174.51510 | 25486 ft | 464 kts | 8° |
| 2026-05-05 08:50 | -39.39935 | 174.52090 | 25491 ft | 464 kts | 7° |
| 2026-05-05 08:50 | -39.36760 | 174.52638 | 25491 ft | 464 kts | 7° |
| 2026-05-05 08:50 | -39.33547 | 174.53207 | 25491 ft | 464 kts | 7° |
| 2026-05-05 08:51 | -39.30373 | 174.53791 | 25488 ft | 464 kts | 7° |
| 2026-05-05 08:51 | -39.27159 | 174.54399 | 25490 ft | 464 kts | 8° |
| 2026-05-05 08:51 | -39.23996 | 174.55007 | 25490 ft | 464 kts | 8° |
| 2026-05-05 08:51 | -39.20883 | 174.55608 | 25494 ft | 464 kts | 8° |
| 2026-05-05 08:52 | -39.17726 | 174.56217 | 25486 ft | 464 kts | 8° |
| 2026-05-05 08:52 | -39.14511 | 174.56834 | 25490 ft | 464 kts | 7° |
| 2026-05-05 08:52 | -39.11300 | 174.57448 | 25490 ft | 464 kts | 7° |
| 2026-05-05 08:52 | -39.08132 | 174.58051 | 25488 ft | 464 kts | 7° |
| 2026-05-05 08:53 | -39.04918 | 174.58659 | 25486 ft | 464 kts | 7° |
| 2026-05-05 08:53 | -39.01752 | 174.59257 | 25488 ft | 464 kts | 7° |
| 2026-05-05 08:53 | -38.98545 | 174.59863 | 25488 ft | 464 kts | 7° |
| 2026-05-05 08:53 | -38.95383 | 174.60460 | 25483 ft | 464 kts | 7° |
| 2026-05-05 08:54 | -38.92176 | 174.61065 | 25484 ft | 464 kts | 7° |
| 2026-05-05 08:54 | -38.88999 | 174.61665 | 25486 ft | 464 kts | 7° |
| 2026-05-05 08:54 | -38.85797 | 174.62269 | 25483 ft | 464 kts | 7° |
| 2026-05-05 08:54 | -38.82582 | 174.62874 | 25483 ft | 464 kts | 7° |
| 2026-05-05 08:55 | -38.79416 | 174.63470 | 25487 ft | 464 kts | 7° |
| 2026-05-05 08:55 | -38.76191 | 174.64077 | 25477 ft | 464 kts | 7° |
| 2026-05-05 08:55 | -38.73016 | 174.64673 | 25484 ft | 464 kts | 7° |
| 2026-05-05 08:55 | -38.69807 | 174.65276 | 25483 ft | 464 kts | 7° |
| 2026-05-05 08:56 | -38.66634 | 174.65871 | 25485 ft | 464 kts | 7° |
| 2026-05-05 08:56 | -38.63434 | 174.66471 | 25482 ft | 464 kts | 7° |
| 2026-05-05 08:56 | -38.60261 | 174.67064 | 25483 ft | 463 kts | 7° |
| 2026-05-05 08:56 | -38.57065 | 174.67662 | 25484 ft | 464 kts | 7° |
| 2026-05-05 08:57 | -38.53893 | 174.68255 | 25490 ft | 464 kts | 7° |
| 2026-05-05 08:57 | -38.50680 | 174.68855 | 25490 ft | 464 kts | 7° |
| 2026-05-05 08:57 | -38.47512 | 174.69446 | 25489 ft | 464 kts | 7° |
| 2026-05-05 08:57 | -38.44333 | 174.70039 | 25465 ft | 449 kts | 7° |
| 2026-05-05 08:58 | -38.41273 | 174.70610 | 24769 ft | 447 kts | 7° |
| 2026-05-05 08:58 | -38.38196 | 174.71182 | 24043 ft | 442 kts | 7° |
| 2026-05-05 08:58 | -38.35141 | 174.71749 | 23199 ft | 455 kts | 7° |
| 2026-05-05 08:58 | -38.31969 | 174.72337 | 22510 ft | 464 kts | 7° |
| 2026-05-05 08:59 | -38.28785 | 174.72927 | 22048 ft | 462 kts | 7° |
| 2026-05-05 08:59 | -38.25677 | 174.73506 | 21969 ft | 438 kts | 7° |
| 2026-05-05 08:59 | -38.22698 | 174.74060 | 21680 ft | 429 kts | 7° |
| 2026-05-05 08:59 | -38.19758 | 174.74604 | 21659 ft | 429 kts | 7° |
| 2026-05-05 09:00 | -38.16792 | 174.75151 | 21651 ft | 428 kts | 7° |
| 2026-05-05 09:00 | -38.13865 | 174.75692 | 21647 ft | 428 kts | 7° |
| 2026-05-05 09:00 | -38.10936 | 174.76232 | 21631 ft | 427 kts | 7° |
| 2026-05-05 09:00 | -38.07994 | 174.76775 | 21606 ft | 427 kts | 7° |
| 2026-05-05 09:01 | -38.05036 | 174.77320 | 21591 ft | 426 kts | 7° |
| 2026-05-05 09:01 | -38.02136 | 174.77854 | 21581 ft | 425 kts | 7° |
| 2026-05-05 09:01 | -37.99241 | 174.78388 | 21362 ft | 415 kts | 7° |
| 2026-05-05 09:01 | -37.96448 | 174.79126 | 20623 ft | 409 kts | 14° |
| 2026-05-05 09:02 | -37.93677 | 174.79818 | 19886 ft | 404 kts | 5° |
| 2026-05-05 09:02 | -37.90877 | 174.80128 | 19188 ft | 400 kts | 4° |
| 2026-05-05 09:02 | -37.88138 | 174.80475 | 18445 ft | 396 kts | 5° |
| 2026-05-05 09:02 | -37.85396 | 174.80773 | 17637 ft | 392 kts | 1° |
| 2026-05-05 09:03 | -37.82726 | 174.80908 | 16890 ft | 386 kts | 0° |
| 2026-05-05 09:03 | -37.80041 | 174.80899 | 16130 ft | 384 kts | 358° |
| 2026-05-05 09:03 | -37.77393 | 174.80852 | 15397 ft | 381 kts | 359° |
| 2026-05-05 09:03 | -37.74744 | 174.80824 | 14685 ft | 379 kts | 359° |
| 2026-05-05 09:04 | -37.72106 | 174.80827 | 13939 ft | 376 kts | 360° |
| 2026-05-05 09:04 | -37.69524 | 174.80850 | 13167 ft | 367 kts | 0° |
| 2026-05-05 09:04 | -37.67071 | 174.80884 | 12376 ft | 336 kts | 0° |
| 2026-05-05 09:04 | -37.64829 | 174.80917 | 11633 ft | 314 kts | 0° |
| 2026-05-05 09:05 | -37.62659 | 174.80947 | 10917 ft | 305 kts | 0° |
| 2026-05-05 09:05 | -37.60601 | 174.80976 | 10190 ft | 291 kts | 1° |
| 2026-05-05 09:05 | -37.58613 | 174.80979 | 9402 ft | 279 kts | 356° |
| 2026-05-05 09:05 | -37.56718 | 174.80647 | 8644 ft | 269 kts | 349° |
| 2026-05-05 09:06 | -37.54918 | 174.80179 | 7918 ft | 262 kts | 348° |
| 2026-05-05 09:06 | -37.53143 | 174.79707 | 7185 ft | 257 kts | 348° |
| 2026-05-05 09:06 | -37.51418 | 174.79264 | 6498 ft | 254 kts | 349° |
| 2026-05-05 09:06 | -37.49636 | 174.78820 | 6314 ft | 272 kts | 349° |
| 2026-05-05 09:07 | -37.47767 | 174.78365 | 6150 ft | 274 kts | 349° |
| 2026-05-05 09:07 | -37.45895 | 174.77916 | 5865 ft | 269 kts | 350° |
| 2026-05-05 09:07 | -37.44062 | 174.77481 | 5327 ft | 274 kts | 350° |
| 2026-05-05 09:07 | -37.42203 | 174.77042 | 5171 ft | 265 kts | 350° |
| 2026-05-05 09:08 | -37.40369 | 174.76609 | 5113 ft | 276 kts | 350° |
| 2026-05-05 09:08 | -37.38432 | 174.76155 | 5147 ft | 296 kts | 350° |
| 2026-05-05 09:08 | -37.36346 | 174.75665 | 5130 ft | 301 kts | 350° |
| 2026-05-05 09:08 | -37.34309 | 174.75186 | 5051 ft | 292 kts | 350° |
| 2026-05-05 09:09 | -37.32357 | 174.74725 | 4988 ft | 285 kts | 350° |
| 2026-05-05 09:09 | -37.30413 | 174.74268 | 4936 ft | 280 kts | 350° |
| 2026-05-05 09:09 | -37.28537 | 174.73827 | 4908 ft | 275 kts | 350° |
| 2026-05-05 09:09 | -37.26654 | 174.73384 | 4881 ft | 272 kts | 350° |
| 2026-05-05 09:10 | -37.24790 | 174.72947 | 4870 ft | 276 kts | 350° |
| 2026-05-05 09:10 | -37.22917 | 174.72508 | 4842 ft | 274 kts | 350° |
| 2026-05-05 09:10 | -37.21114 | 174.72084 | 4655 ft | 251 kts | 351° |
| 2026-05-05 09:10 | -37.19416 | 174.71660 | 4174 ft | 246 kts | 349° |
| 2026-05-05 09:11 | -37.17785 | 174.71206 | 3969 ft | 232 kts | 349° |
| 2026-05-05 09:11 | -37.16239 | 174.70772 | 3964 ft | 220 kts | 349° |
| 2026-05-05 09:11 | -37.14800 | 174.70370 | 3958 ft | 208 kts | 349° |
| 2026-05-05 09:11 | -37.13439 | 174.69984 | 3939 ft | 189 kts | 346° |
| 2026-05-05 09:12 | -37.12391 | 174.69172 | 3966 ft | 182 kts | 316° |
| 2026-05-05 09:12 | -37.11772 | 174.67871 | 3808 ft | 173 kts | 291° |
| 2026-05-05 09:12 | -37.11421 | 174.66450 | 3768 ft | 160 kts | 293° |
| 2026-05-05 09:12 | -37.11095 | 174.65237 | 3664 ft | 143 kts | 294° |
| 2026-05-05 09:13 | -37.10776 | 174.64052 | 3604 ft | 142 kts | 294° |
| 2026-05-05 09:13 | -37.10463 | 174.62882 | 3502 ft | 141 kts | 294° |
| 2026-05-05 09:13 | -37.10158 | 174.61729 | 3405 ft | 140 kts | 294° |
| 2026-05-05 09:13 | -37.09848 | 174.60560 | 3310 ft | 141 kts | 295° |
| 2026-05-05 09:14 | -37.09538 | 174.59408 | 3221 ft | 140 kts | 295° |
| 2026-05-05 09:14 | -37.09228 | 174.58237 | 3157 ft | 141 kts | 294° |
| 2026-05-05 09:14 | -37.08919 | 174.57084 | 3062 ft | 139 kts | 300° |
| 2026-05-05 09:14 | -37.08236 | 174.56398 | 2955 ft | 122 kts | 358° |
| 2026-05-05 09:15 | -37.07407 | 174.56585 | 2907 ft | 124 kts | 33° |
| 2026-05-05 09:15 | -37.07013 | 174.57527 | 2872 ft | 126 kts | 72° |
| 2026-05-05 09:15 | -37.06748 | 174.58565 | 2797 ft | 125 kts | 67° |
| 2026-05-05 09:15 | -37.06458 | 174.59605 | 2728 ft | 125 kts | 67° |
| 2026-05-05 09:16 | -37.06173 | 174.60626 | 2653 ft | 125 kts | 67° |
| 2026-05-05 09:16 | -37.05889 | 174.61649 | 2588 ft | 123 kts | 67° |
| 2026-05-05 09:16 | -37.05613 | 174.62647 | 2578 ft | 120 kts | 66° |
| 2026-05-05 09:16 | -37.05339 | 174.63631 | 2588 ft | 122 kts | 67° |
| 2026-05-05 09:17 | -37.05063 | 174.64628 | 2556 ft | 120 kts | 67° |
| 2026-05-05 09:17 | -37.04780 | 174.65604 | 2389 ft | 124 kts | 68° |
| 2026-05-05 09:17 | -37.04522 | 174.66625 | 1984 ft | 122 kts | 69° |
| 2026-05-05 09:17 | -37.04242 | 174.67643 | 1480 ft | 129 kts | 68° |
| 2026-05-05 09:18 | -37.03986 | 174.68570 | 1621 ft | 100 kts | 68° |
| 2026-05-05 09:18 | -37.03747 | 174.69429 | 1336 ft | 112 kts | 71° |
| 2026-05-05 09:18 | -37.03512 | 174.70371 | 1047 ft | 115 kts | 71° |
| 2026-05-05 09:18 | -37.03261 | 174.71303 | 915 ft | 111 kts | 71° |
| 2026-05-05 09:19 | -37.02991 | 174.72214 | 778 ft | 112 kts | 70° |
| 2026-05-05 09:19 | -37.02728 | 174.73119 | 666 ft | 116 kts | 71° |
| 2026-05-05 09:19 | -37.02443 | 174.74103 | 644 ft | 123 kts | 71° |
| 2026-05-05 09:19 | -37.02169 | 174.75154 | 417 ft | 131 kts | 73° |
| 2026-05-05 09:20 | -37.01878 | 174.76236 | 202 ft | 132 kts | 70° |
| 2026-05-05 09:20 | -37.01571 | 174.77307 | 50 ft | 129 kts | 71° |
| 2026-05-05 09:20 | -37.01305 | 174.78259 | 36 ft | 97 kts | 71° |
| 2026-05-05 09:20 | -37.01147 | 174.78805 | 37 ft | 28 kts | 65° |
| 2026-05-05 09:21 | -37.01088 | 174.78928 | 37 ft | 15 kts | 56° |
| 2026-05-05 09:21 | -37.01019 | 174.79036 | 37 ft | 16 kts | 47° |
| 2026-05-05 09:21 | -37.00923 | 174.79108 | 39 ft | 16 kts | 13° |
| 2026-05-05 09:21 | -37.00809 | 174.79092 | 41 ft | 17 kts | 342° |
| 2026-05-05 09:22 | -37.00753 | 174.79069 | 41 ft | 1 kts | 341° |